Terminal Aerodrome Forecast
Issued by NWS

Home | Current Version | Previous Version | Graphics & Text | Print | Product List | Glossary On
Versions: 1 2 3 4 5 6 7 8 9 10 11 12 13 14 15 16 17 18 19 20 21 22
694
FTUS43 KGRB 230757 AAA
TAFAUW
TAF AMD
KAUW 230757Z 2308/2406 34008G15KT P6SM BKN004 OVC009
     FM231500 02010G17KT P6SM SCT020 BKN250
     FM232300 05008KT P6SM SCT025 BKN090
     FM240500 05012G18KT 3SM -SN SCT012 OVC025=

USA.gov is the U.S. government's official web portal to all federal, state and local government web resources and services.